Time;durP1;ratioP1;P1;durP2;ratioP2;P2;SDS_P1;SDS_P2;PMS_P1;PMS_P2;Temp;Humidity;BMP_temperature;BMP_pressure;BME280_temperature;BME280_humidity;BME280_pressure;Samples;Min_cycle;Max_cycle;Signal;HPM_P1;HPM_P2
2023/01/10 00:01:36;;;;;;;;;;;;;;;;;;4982511;28;20016;-79
2023/01/10 00:04:02;;;;;;;;;;;;;;;;;;4981766;28;19910;-79
2023/01/10 00:06:28;;;;;;;;;;;;;;;;;;4965999;28;19996;-79
2023/01/10 00:08:56;;;;;;;;;;;;;;;;;;4983693;28;20005;-80
2023/01/10 00:14:11;;;;;;;;;;;;;;;;;;4962686;28;19949;-79
2023/01/10 00:16:38;;;;;;;;;;;;;;;;;;4965281;28;19910;-79
2023/01/10 00:19:04;;;;;;;;;;;;;;;;;;4965844;28;19932;-79
2023/01/10 00:21:30;;;;;;;;;;;;;;;;;;4982913;28;19956;-78
2023/01/10 00:24:04;;;;;;;;;;;;;;;;;;4965481;28;20005;-77
2023/01/10 00:26:30;;;;;;;;;;;;;;;;;;4982964;28;19921;-78
2023/01/10 00:28:56;;;;;;;;;;;;;;;;;;4964513;28;19910;-79
2023/01/10 00:31:22;;;;;;;;;;;;;;;;;;4965733;28;19911;-78
2023/01/10 00:33:48;;;;;;;;;;;;;;;;;;4983433;28;19915;-79
2023/01/10 00:36:14;;;;;;;;;;;;;;;;;;4984112;28;19913;-78
2023/01/10 00:38:40;;;;;;;;;;;;;;;;;;4965265;28;19914;-78
2023/01/10 00:43:55;;;;;;;;;;;;;;;;;;4981914;28;19914;-78
2023/01/10 00:43:58;;;;;;;;;;;;;;;;;;4983691;28;19949;-80
2023/01/10 00:46:24;;;;;;;;;;;;;;;;;;4965446;28;19925;-76
2023/01/10 00:48:50;;;;;;;;;;;;;;;;;;4983105;28;19921;-78
2023/01/10 00:51:16;;;;;;;;;;;;;;;;;;4983112;28;19953;-79
2023/01/10 00:53:42;;;;;;;;;;;;;;;;;;4983087;28;20283;-79
2023/01/10 00:56:07;;;;;;;;;;;;;;;;;;4966387;28;19911;-78
2023/01/10 00:58:33;;;;;;;;;;;;;;;;;;4983394;28;19910;-78
2023/01/10 01:00:59;;;;;;;;;;;;;;;;;;4966665;28;19986;-78
2023/01/10 01:03:25;;;;;;;;;;;;;;;;;;4985059;28;19962;-76
2023/01/10 01:05:51;;;;;;;;;;;;;;;;;;4970390;28;19966;-79
2023/01/10 01:08:17;;;;;;;;;;;;;;;;;;4988326;28;19964;-79
2023/01/10 01:10:43;;;;;;;;;;;;;;;;;;4987870;28;19910;-77
2023/01/10 01:13:09;;;;;;;;;;;;;;;;;;4988332;28;19910;-78
2023/01/10 01:15:35;;;;;;;;;;;;;;;;;;4995369;23;19926;-75
2023/01/10 01:18:01;;;;;;;;;;;;;;;;;;4996234;28;20053;-76
2023/01/10 01:20:26;;;;;;;;;;;;;;;;;;4979022;28;19914;-75
2023/01/10 01:22:52;;;;;;;;;;;;;;;;;;4996533;28;19917;-76
2023/01/10 01:25:18;;;;;;;;;;;;;;;;;;4978898;28;20391;-75
2023/01/10 01:27:44;;;;;;;;;;;;;;;;;;4995777;28;19910;-75
2023/01/10 01:30:10;;;;;;;;;;;;;;;;;;4978864;28;19953;-76
2023/01/10 01:32:36;;;;;;;;;;;;;;;;;;4996267;28;19910;-75
2023/01/10 01:35:02;;;;;;;;;;;;;;;;;;4978624;28;19910;-75
2023/01/10 01:37:28;;;;;;;;;;;;;;;;;;4996056;28;20333;-75
2023/01/10 01:39:54;;;;;;;;;;;;;;;;;;4995734;28;20461;-75
2023/01/10 01:42:20;;;;;;;;;;;;;;;;;;4996022;28;19964;-75
2023/01/10 01:44:46;;;;;;;;;;;;;;;;;;4995940;28;19964;-75
2023/01/10 01:47:12;;;;;;;;;;;;;;;;;;4978625;28;19910;-75
2023/01/10 01:49:38;;;;;;;;;;;;;;;;;;4978419;28;19936;-75
2023/01/10 01:52:04;;;;;;;;;;;;;;;;;;4978422;28;19914;-75
2023/01/10 01:54:30;;;;;;;;;;;;;;;;;;4978305;28;19996;-75
2023/01/10 01:56:55;;;;;;;;;;;;;;;;;;4995876;28;20374;-75
2023/01/10 01:59:22;;;;;;;;;;;;;;;;;;4978375;28;19910;-75
2023/01/10 02:01:47;;;;;;;;;;;;;;;;;;4995767;28;19918;-75
2023/01/10 02:04:13;;;;;;;;;;;;;;;;;;4978338;28;20306;-75
2023/01/10 02:06:39;;;;;;;;;;;;;;;;;;4995580;28;20350;-75
2023/01/10 02:09:05;;;;;;;;;;;;;;;;;;4995520;28;19916;-75
2023/01/10 02:11:31;;;;;;;;;;;;;;;;;;4995578;28;19913;-75
2023/01/10 02:13:57;;;;;;;;;;;;;;;;;;4995523;28;19948;-75
2023/01/10 02:16:23;;;;;;;;;;;;;;;;;;4977831;28;19914;-75
2023/01/10 02:18:49;;;;;;;;;;;;;;;;;;4977951;28;20386;-76
2023/01/10 02:21:15;;;;;;;;;;;;;;;;;;4995365;28;19953;-75
2023/01/10 02:23:40;;;;;;;;;;;;;;;;;;4977940;28;19910;-75
2023/01/10 02:26:06;;;;;;;;;;;;;;;;;;4995196;28;19910;-75
2023/01/10 02:28:32;;;;;;;;;;;;;;;;;;4977718;28;19910;-75
2023/01/10 02:30:58;;;;;;;;;;;;;;;;;;4995243;28;20377;-75
2023/01/10 02:33:24;;;;;;;;;;;;;;;;;;4977790;28;19914;-75
2023/01/10 02:35:50;;;;;;;;;;;;;;;;;;4977458;28;20333;-76
2023/01/10 02:38:16;;;;;;;;;;;;;;;;;;4994336;28;19910;-75
2023/01/10 02:40:42;;;;;;;;;;;;;;;;;;4994981;28;19913;-76
2023/01/10 02:43:08;;;;;;;;;;;;;;;;;;4977613;28;19965;-75
2023/01/10 02:45:34;;;;;;;;;;;;;;;;;;4994746;28;19917;-75
2023/01/10 02:48:00;;;;;;;;;;;;;;;;;;4994720;28;20334;-75
2023/01/10 02:50:26;;;;;;;;;;;;;;;;;;4994849;28;19910;-75
2023/01/10 02:52:52;;;;;;;;;;;;;;;;;;4994799;28;19916;-75
2023/01/10 02:55:18;;;;;;;;;;;;;;;;;;4994643;28;20013;-75
2023/01/10 02:57:43;;;;;;;;;;;;;;;;;;4994599;28;19955;-75
2023/01/10 03:00:09;;;;;;;;;;;;;;;;;;4977331;28;20306;-75
2023/01/10 03:02:35;;;;;;;;;;;;;;;;;;4994504;28;19914;-75
2023/01/10 03:05:01;;;;;;;;;;;;;;;;;;4994403;28;19910;-75
2023/01/10 03:07:27;;;;;;;;;;;;;;;;;;4977091;28;19921;-75
2023/01/10 03:09:53;;;;;;;;;;;;;;;;;;4977022;28;19914;-75
2023/01/10 03:12:19;;;;;;;;;;;;;;;;;;4977085;28;19910;-75
2023/01/10 03:14:45;;;;;;;;;;;;;;;;;;4994139;28;19992;-75
2023/01/10 03:17:11;;;;;;;;;;;;;;;;;;4994286;28;19910;-75
2023/01/10 03:19:37;;;;;;;;;;;;;;;;;;4994089;28;19910;-75
2023/01/10 03:22:03;;;;;;;;;;;;;;;;;;4994084;28;20358;-76
2023/01/10 03:24:29;;;;;;;;;;;;;;;;;;4976735;28;19909;-75
2023/01/10 03:26:55;;;;;;;;;;;;;;;;;;4993566;28;19916;-76
2023/01/10 03:29:20;;;;;;;;;;;;;;;;;;4976618;28;19933;-75
2023/01/10 03:31:46;;;;;;;;;;;;;;;;;;4993992;28;19910;-75
2023/01/10 03:34:12;;;;;;;;;;;;;;;;;;4993891;28;19969;-76
2023/01/10 03:36:38;;;;;;;;;;;;;;;;;;4976449;28;20302;-75
2023/01/10 03:39:04;;;;;;;;;;;;;;;;;;4975829;28;19917;-75
2023/01/10 03:41:30;;;;;;;;;;;;;;;;;;4976303;28;19913;-75
2023/01/10 03:46:40;;;;;;;;;;;;;;;;;;4993785;28;19920;-75
2023/01/10 03:49:06;;;;;;;;;;;;;;;;;;4993691;28;19910;-75
2023/01/10 03:51:32;;;;;;;;;;;;;;;;;;4993758;28;19917;-74
2023/01/10 03:53:58;;;;;;;;;;;;;;;;;;4976248;28;19913;-75
2023/01/10 03:56:24;;;;;;;;;;;;;;;;;;4993433;28;19956;-75
2023/01/10 03:58:50;;;;;;;;;;;;;;;;;;4993440;28;19990;-75
2023/01/10 04:01:16;;;;;;;;;;;;;;;;;;4976212;28;19960;-75
2023/01/10 04:03:42;;;;;;;;;;;;;;;;;;4993533;28;19993;-75
2023/01/10 04:06:08;;;;;;;;;;;;;;;;;;4993288;28;19961;-75
2023/01/10 04:08:33;;;;;;;;;;;;;;;;;;4975949;28;19914;-75
2023/01/10 04:10:59;;;;;;;;;;;;;;;;;;4976095;28;19910;-75
2023/01/10 04:13:25;;;;;;;;;;;;;;;;;;4997191;28;20366;-75
2023/01/10 04:15:51;;;;;;;;;;;;;;;;;;4996178;28;19925;-76
2023/01/10 04:18:18;;;;;;;;;;;;;;;;;;4979360;28;19909;-74
2023/01/10 04:20:43;;;;;;;;;;;;;;;;;;4976013;28;19914;-74
2023/01/10 04:23:09;;;;;;;;;;;;;;;;;;4993380;28;20343;-75
2023/01/10 04:25:35;;;;;;;;;;;;;;;;;;4993058;28;19910;-75
2023/01/10 04:28:01;;;;;;;;;;;;;;;;;;4993072;28;19917;-75
2023/01/10 04:30:27;;;;;;;;;;;;;;;;;;4975860;28;19917;-75
2023/01/10 04:32:53;;;;;;;;;;;;;;;;;;4975741;28;19984;-76
2023/01/10 04:35:19;;;;;;;;;;;;;;;;;;4975499;28;20008;-75
2023/01/10 04:37:45;;;;;;;;;;;;;;;;;;4974515;28;19957;-75
2023/01/10 04:40:11;;;;;;;;;;;;;;;;;;4992688;28;19914;-75
2023/01/10 04:42:37;;;;;;;;;;;;;;;;;;4975466;28;19914;-74
2023/01/10 04:45:03;;;;;;;;;;;;;;;;;;4993273;28;20012;-75
2023/01/10 04:47:29;;;;;;;;;;;;;;;;;;4975942;28;19909;-75
2023/01/10 04:49:55;;;;;;;;;;;;;;;;;;4975956;28;19916;-75
2023/01/10 04:52:21;;;;;;;;;;;;;;;;;;4994430;28;19910;-75
2023/01/10 04:54:47;;;;;;;;;;;;;;;;;;4992910;28;19910;-75
2023/01/10 04:57:13;;;;;;;;;;;;;;;;;;4993128;28;20008;-75
2023/01/10 04:59:39;;;;;;;;;;;;;;;;;;4975493;28;19909;-75
2023/01/10 05:02:05;;;;;;;;;;;;;;;;;;4975380;28;19914;-74
2023/01/10 05:04:30;;;;;;;;;;;;;;;;;;4975188;28;20391;-75
2023/01/10 05:06:56;;;;;;;;;;;;;;;;;;4975305;28;19910;-75
2023/01/10 05:09:22;;;;;;;;;;;;;;;;;;4975214;28;19917;-75
2023/01/10 05:11:48;;;;;;;;;;;;;;;;;;4992813;28;19914;-75
2023/01/10 05:14:14;;;;;;;;;;;;;;;;;;4992648;28;19914;-75
2023/01/10 05:16:40;;;;;;;;;;;;;;;;;;4975193;28;19949;-75
2023/01/10 05:19:06;;;;;;;;;;;;;;;;;;4975193;28;19909;-75
2023/01/10 05:21:32;;;;;;;;;;;;;;;;;;4975230;28;19972;-75
2023/01/10 05:23:58;;;;;;;;;;;;;;;;;;4992686;28;19914;-75
2023/01/10 05:26:23;;;;;;;;;;;;;;;;;;4992422;28;20114;-74
2023/01/10 05:28:49;;;;;;;;;;;;;;;;;;4992667;28;19910;-74
2023/01/10 05:31:15;;;;;;;;;;;;;;;;;;4992615;28;19909;-75
2023/01/10 05:33:41;;;;;;;;;;;;;;;;;;4992525;28;19906;-75
2023/01/10 05:36:07;;;;;;;;;;;;;;;;;;4992339;28;19919;-75
2023/01/10 05:38:33;;;;;;;;;;;;;;;;;;4974550;28;19913;-75
2023/01/10 05:40:59;;;;;;;;;;;;;;;;;;4994646;28;19921;-75
2023/01/10 05:43:25;;;;;;;;;;;;;;;;;;4997283;28;20358;-76
2023/01/10 05:45:51;;;;;;;;;;;;;;;;;;4978309;28;19914;-75
2023/01/10 05:48:17;;;;;;;;;;;;;;;;;;4996407;28;19910;-75
2023/01/10 05:50:43;;;;;;;;;;;;;;;;;;4977537;28;19910;-75
2023/01/10 05:53:09;;;;;;;;;;;;;;;;;;4978674;28;20009;-75
2023/01/10 05:55:35;;;;;;;;;;;;;;;;;;4995757;28;20402;-75
2023/01/10 05:58:00;;;;;;;;;;;;;;;;;;4995873;28;19910;-75
2023/01/10 06:00:26;;;;;;;;;;;;;;;;;;4978374;28;19910;-75
2023/01/10 06:02:52;;;;;;;;;;;;;;;;;;4978282;28;20012;-75
2023/01/10 06:05:18;;;;;;;;;;;;;;;;;;4978007;28;20378;-74
2023/01/10 06:07:44;;;;;;;;;;;;;;;;;;4978638;28;19917;-76
2023/01/10 06:10:10;;;;;;;;;;;;;;;;;;4996017;28;20286;-77
2023/01/10 06:12:36;;;;;;;;;;;;;;;;;;4997158;28;19965;-76
2023/01/10 06:15:02;;;;;;;;;;;;;;;;;;4995409;28;19918;-76
2023/01/10 06:17:28;;;;;;;;;;;;;;;;;;4995512;28;19914;-76
2023/01/10 06:19:54;;;;;;;;;;;;;;;;;;4995564;28;19969;-76
2023/01/10 06:22:20;;;;;;;;;;;;;;;;;;4996356;28;19913;-75
2023/01/10 06:24:46;;;;;;;;;;;;;;;;;;4977683;28;20282;-75
2023/01/10 06:27:12;;;;;;;;;;;;;;;;;;4995439;28;19949;-75
2023/01/10 06:29:38;;;;;;;;;;;;;;;;;;4977660;28;20013;-75
2023/01/10 06:32:03;;;;;;;;;;;;;;;;;;4995146;28;20486;-75
2023/01/10 06:34:29;;;;;;;;;;;;;;;;;;4977673;28;19910;-75
2023/01/10 06:36:55;;;;;;;;;;;;;;;;;;4977699;28;19909;-74
2023/01/10 06:39:21;;;;;;;;;;;;;;;;;;4994977;28;19916;-75
2023/01/10 06:41:47;;;;;;;;;;;;;;;;;;4977716;28;19918;-75
2023/01/10 06:44:13;;;;;;;;;;;;;;;;;;4995013;28;20017;-75
2023/01/10 06:46:39;;;;;;;;;;;;;;;;;;4994913;28;19953;-75
2023/01/10 06:49:05;;;;;;;;;;;;;;;;;;4994702;28;19933;-75
2023/01/10 06:51:31;;;;;;;;;;;;;;;;;;4977481;28;19914;-75
2023/01/10 06:53:57;;;;;;;;;;;;;;;;;;4994828;28;19977;-74
2023/01/10 06:56:22;;;;;;;;;;;;;;;;;;4994712;28;19917;-75
2023/01/10 06:58:48;;;;;;;;;;;;;;;;;;4994628;28;20000;-75
2023/01/10 07:01:14;;;;;;;;;;;;;;;;;;4976334;28;19973;-75
2023/01/10 07:03:40;;;;;;;;;;;;;;;;;;4994732;28;19955;-75
2023/01/10 07:06:09;;;;;;;;;;;;;;;;;;4994380;28;20272;-75
2023/01/10 07:08:35;;;;;;;;;;;;;;;;;;4994351;28;19941;-75
2023/01/10 07:11:01;;;;;;;;;;;;;;;;;;4976640;28;20092;-76
2023/01/10 07:13:27;;;;;;;;;;;;;;;;;;4994514;28;19913;-75
2023/01/10 07:15:53;;;;;;;;;;;;;;;;;;5019856;23;19956;-77
2023/01/10 07:18:19;;;;;;;;;;;;;;;;;;5026392;28;19915;-80
2023/01/10 07:20:45;;;;;;;;;;;;;;;;;;5010295;28;20374;-78
2023/01/10 07:23:11;;;;;;;;;;;;;;;;;;5009051;28;19944;-79
2023/01/10 07:25:37;;;;;;;;;;;;;;;;;;5026502;28;19944;-78
2023/01/10 07:28:03;;;;;;;;;;;;;;;;;;5027711;28;19909;-78
2023/01/10 07:30:29;;;;;;;;;;;;;;;;;;5025230;28;19910;-78
2023/01/10 07:32:55;;;;;;;;;;;;;;;;;;5009918;28;19904;-79
2023/01/10 07:35:21;;;;;;;;;;;;;;;;;;5027293;28;19910;-78
2023/01/10 07:37:46;;;;;;;;;;;;;;;;;;5010140;28;19910;-79
2023/01/10 07:40:12;;;;;;;;;;;;;;;;;;5028047;28;20277;-80
2023/01/10 07:42:38;;;;;;;;;;;;;;;;;;5028501;28;19914;-78
2023/01/10 07:45:06;;;;;;;;;;;;;;;;;;5026941;28;19909;-79
2023/01/10 07:47:32;;;;;;;;;;;;;;;;;;5027065;28;19972;-80
2023/01/10 07:49:57;;;;;;;;;;;;;;;;;;5027552;28;19910;-78
2023/01/10 07:52:23;;;;;;;;;;;;;;;;;;5010773;28;20005;-78
2023/01/10 07:54:49;;;;;;;;;;;;;;;;;;5026780;28;20008;-79
2023/01/10 07:57:15;;;;;;;;;;;;;;;;;;5009636;28;20000;-80
2023/01/10 07:59:41;;;;;;;;;;;;;;;;;;5027003;28;19910;-80
2023/01/10 08:02:07;;;;;;;;;;;;;;;;;;5009751;28;19913;-80
2023/01/10 08:04:33;;;;;;;;;;;;;;;;;;5010119;28;19917;-79
2023/01/10 08:06:59;;;;;;;;;;;;;;;;;;5027216;28;19909;-80
2023/01/10 08:09:25;;;;;;;;;;;;;;;;;;5009385;28;19909;-79
2023/01/10 08:11:51;;;;;;;;;;;;;;;;;;5026813;28;19981;-78
2023/01/10 08:14:16;;;;;;;;;;;;;;;;;;5008749;28;19909;-80
2023/01/10 08:16:42;;;;;;;;;;;;;;;;;;5009666;28;19917;-78
2023/01/10 08:19:09;;;;;;;;;;;;;;;;;;5026696;28;19956;-77
2023/01/10 08:21:35;;;;;;;;;;;;;;;;;;5008600;28;20306;-79
2023/01/10 08:24:01;;;;;;;;;;;;;;;;;;5009767;28;19910;-76
2023/01/10 08:26:27;;;;;;;;;;;;;;;;;;5009198;28;19921;-77
2023/01/10 08:28:53;;;;;;;;;;;;;;;;;;5008981;28;19916;-77
2023/01/10 08:31:18;;;;;;;;;;;;;;;;;;5008682;28;19920;-78
2023/01/10 08:33:44;;;;;;;;;;;;;;;;;;5006108;28;19916;-80
2023/01/10 08:36:10;;;;;;;;;;;;;;;;;;5023815;28;20585;-79
2023/01/10 08:38:36;;;;;;;;;;;;;;;;;;5007726;28;19965;-79
2023/01/10 08:41:02;;;;;;;;;;;;;;;;;;5007651;28;19941;-79
2023/01/10 08:43:28;;;;;;;;;;;;;;;;;;5007495;28;20408;-79
2023/01/10 08:45:54;;;;;;;;;;;;;;;;;;5008256;28;19941;-78
2023/01/10 08:48:20;;;;;;;;;;;;;;;;;;5006665;28;20075;-79
2023/01/10 08:50:46;;;;;;;;;;;;;;;;;;5026026;28;19964;-77
2023/01/10 08:53:12;;;;;;;;;;;;;;;;;;5026621;28;19913;-80
2023/01/10 08:55:38;;;;;;;;;;;;;;;;;;5012693;28;19914;-78
2023/01/10 08:58:04;;;;;;;;;;;;;;;;;;5020214;28;19902;-76
2023/01/10 09:00:30;;;;;;;;;;;;;;;;;;5015026;28;19906;-77
2023/01/10 09:02:56;;;;;;;;;;;;;;;;;;5000153;28;19921;-77
2023/01/10 09:05:22;;;;;;;;;;;;;;;;;;5015860;28;20406;-77
2023/01/10 09:07:48;;;;;;;;;;;;;;;;;;4988726;28;19949;-78
2023/01/10 09:10:14;;;;;;;;;;;;;;;;;;5001832;28;20030;-77
2023/01/10 09:12:55;;;;;;;;;;;;;;;;;;4988836;28;19921;-79
2023/01/10 09:15:21;;;;;;;;;;;;;;;;;;4985914;28;20414;-79
2023/01/10 09:17:48;;;;;;;;;;;;;;;;;;5003468;28;19921;-79
2023/01/10 09:20:14;;;;;;;;;;;;;;;;;;4986586;28;19933;-77
2023/01/10 09:22:40;;;;;;;;;;;;;;;;;;5003345;28;19921;-78
2023/01/10 09:25:06;;;;;;;;;;;;;;;;;;4986768;28;19921;-78
2023/01/10 09:27:32;;;;;;;;;;;;;;;;;;4990422;28;19909;-78
2023/01/10 09:29:58;;;;;;;;;;;;;;;;;;5006520;28;19909;-79
2023/01/10 09:32:24;;;;;;;;;;;;;;;;;;4990810;28;19910;-79
2023/01/10 09:34:50;;;;;;;;;;;;;;;;;;4990097;28;19928;-79
2023/01/10 09:37:16;;;;;;;;;;;;;;;;;;4989847;28;19914;-80
2023/01/10 09:39:42;;;;;;;;;;;;;;;;;;4990052;28;19973;-79
2023/01/10 09:42:08;;;;;;;;;;;;;;;;;;4990012;28;19914;-79
2023/01/10 09:44:34;;;;;;;;;;;;;;;;;;5007320;28;19913;-79
2023/01/10 09:47:00;;;;;;;;;;;;;;;;;;5006466;28;19917;-78
2023/01/10 09:49:25;;;;;;;;;;;;;;;;;;5005823;28;19910;-79
2023/01/10 09:51:51;;;;;;;;;;;;;;;;;;4988990;28;19905;-78
2023/01/10 09:54:17;;;;;;;;;;;;;;;;;;4989188;28;20359;-77
2023/01/10 09:56:43;;;;;;;;;;;;;;;;;;5006277;28;19917;-78
2023/01/10 09:59:09;;;;;;;;;;;;;;;;;;4989069;28;19913;-77
2023/01/10 10:01:35;;;;;;;;;;;;;;;;;;4984007;28;19913;-77
2023/01/10 10:04:01;;;;;;;;;;;;;;;;;;5000557;28;19910;-77
2023/01/10 10:06:27;;;;;;;;;;;;;;;;;;4997613;28;19910;-75
2023/01/10 10:08:53;;;;;;;;;;;;;;;;;;4997077;28;19910;-76
2023/01/10 10:11:19;;;;;;;;;;;;;;;;;;4997523;28;19910;-76
2023/01/10 10:13:45;;;;;;;;;;;;;;;;;;4980548;28;19960;-76
2023/01/10 10:16:11;;;;;;;;;;;;;;;;;;4997386;28;20321;-77
2023/01/10 10:18:37;;;;;;;;;;;;;;;;;;4979617;28;20005;-76
2023/01/10 10:21:04;;;;;;;;;;;;;;;;;;4997133;28;20387;-75
2023/01/10 10:23:30;;;;;;;;;;;;;;;;;;4996838;28;19910;-78
2023/01/10 10:25:56;;;;;;;;;;;;;;;;;;4979791;28;19906;-76
2023/01/10 10:28:22;;;;;;;;;;;;;;;;;;4998020;28;19910;-78
2023/01/10 10:30:48;;;;;;;;;;;;;;;;;;4979342;28;19909;-78
2023/01/10 10:33:13;;;;;;;;;;;;;;;;;;4979470;28;19910;-78
2023/01/10 10:35:39;;;;;;;;;;;;;;;;;;4979758;28;19916;-79
2023/01/10 10:38:05;;;;;;;;;;;;;;;;;;4979098;28;20375;-79
2023/01/10 10:40:31;;;;;;;;;;;;;;;;;;4978714;28;19916;-78
2023/01/10 10:42:57;;;;;;;;;;;;;;;;;;4979156;28;19921;-79
2023/01/10 10:45:23;;;;;;;;;;;;;;;;;;4978611;28;19957;-78
2023/01/10 10:47:49;;;;;;;;;;;;;;;;;;4978940;28;20287;-80
2023/01/10 10:50:15;;;;;;;;;;;;;;;;;;4979122;28;19916;-80
2023/01/10 10:52:41;;;;;;;;;;;;;;;;;;4978132;28;19910;-80
2023/01/10 10:55:07;;;;;;;;;;;;;;;;;;4978479;28;20393;-80
2023/01/10 10:57:33;;;;;;;;;;;;;;;;;;4978794;28;20233;-80
2023/01/10 10:59:59;;;;;;;;;;;;;;;;;;4978941;28;19910;-82
2023/01/10 11:02:25;;;;;;;;;;;;;;;;;;4979192;28;19914;-79
2023/01/10 11:04:51;;;;;;;;;;;;;;;;;;4977871;28;20280;-79
2023/01/10 11:07:17;;;;;;;;;;;;;;;;;;4978858;28;19961;-80
2023/01/10 11:09:56;;;;;;;;;;;;;;;;;;4979025;28;20364;-81
2023/01/10 11:12:22;;;;;;;;;;;;;;;;;;4996663;28;19916;-82
2023/01/10 11:14:48;;;;;;;;;;;;;;;;;;4996272;28;20020;-84
2023/01/10 11:17:13;;;;;;;;;;;;;;;;;;4979001;28;20429;-80
2023/01/10 11:19:39;;;;;;;;;;;;;;;;;;4978288;28;19917;-79
2023/01/10 11:22:05;;;;;;;;;;;;;;;;;;4978213;28;20370;-79
2023/01/10 11:24:31;;;;;;;;;;;;;;;;;;4995865;28;19948;-79
2023/01/10 11:26:57;;;;;;;;;;;;;;;;;;4978223;28;20328;-79
2023/01/10 11:29:23;;;;;;;;;;;;;;;;;;4995200;28;19916;-79
2023/01/10 11:31:49;;;;;;;;;;;;;;;;;;4977991;28;19910;-79
2023/01/10 11:34:15;;;;;;;;;;;;;;;;;;4995238;28;20279;-79
2023/01/10 11:36:41;;;;;;;;;;;;;;;;;;4977512;28;19949;-80
2023/01/10 11:39:07;;;;;;;;;;;;;;;;;;4977649;28;19914;-80
2023/01/10 11:41:35;;;;;;;;;;;;;;;;;;4977407;28;19929;-81
2023/01/10 11:44:01;;;;;;;;;;;;;;;;;;4977193;28;19910;-80
2023/01/10 11:46:27;;;;;;;;;;;;;;;;;;4995224;28;20363;-80
2023/01/10 11:48:53;;;;;;;;;;;;;;;;;;4977584;28;19914;-79
2023/01/10 11:51:19;;;;;;;;;;;;;;;;;;4995129;28;19961;-79
2023/01/10 11:53:46;;;;;;;;;;;;;;;;;;4977669;28;19971;-78
2023/01/10 11:56:11;;;;;;;;;;;;;;;;;;4977412;28;19933;-79
2023/01/10 11:58:38;;;;;;;;;;;;;;;;;;4994823;28;19911;-80
2023/01/10 12:01:04;;;;;;;;;;;;;;;;;;4994747;28;19996;-80
2023/01/10 12:03:31;;;;;;;;;;;;;;;;;;4977297;28;19945;-80
2023/01/10 12:05:57;;;;;;;;;;;;;;;;;;4977512;28;19910;-80
2023/01/10 12:08:23;;;;;;;;;;;;;;;;;;4994306;28;19997;-79
2023/01/10 12:10:49;;;;;;;;;;;;;;;;;;4977567;28;19961;-80
2023/01/10 12:13:15;;;;;;;;;;;;;;;;;;4977252;28;19942;-80
2023/01/10 12:15:40;;;;;;;;;;;;;;;;;;4993994;28;19918;-82
2023/01/10 12:18:06;;;;;;;;;;;;;;;;;;4978139;28;19921;-79
2023/01/10 12:20:32;;;;;;;;;;;;;;;;;;4996425;28;20378;-79
2023/01/10 12:22:58;;;;;;;;;;;;;;;;;;4996369;28;19918;-78
2023/01/10 12:25:24;;;;;;;;;;;;;;;;;;4995826;28;20409;-79
2023/01/10 12:27:50;;;;;;;;;;;;;;;;;;4996268;28;19910;-77
2023/01/10 12:30:16;;;;;;;;;;;;;;;;;;5014698;28;20099;-76
2023/01/10 12:32:42;;;;;;;;;;;;;;;;;;4997264;28;19910;-82
2023/01/10 12:35:08;;;;;;;;;;;;;;;;;;4997085;28;20289;-83
2023/01/10 12:37:34;;;;;;;;;;;;;;;;;;4997359;28;19910;-82
2023/01/10 12:40:00;;;;;;;;;;;;;;;;;;4996800;28;19909;-80
2023/01/10 12:45:10;;;;;;;;;;;;;;;;;;5015530;28;19917;-77
2023/01/10 12:47:36;;;;;;;;;;;;;;;;;;5014597;28;19913;-78
2023/01/10 12:50:02;;;;;;;;;;;;;;;;;;4997191;28;19917;-77
2023/01/10 12:52:28;;;;;;;;;;;;;;;;;;4996384;28;20266;-77
2023/01/10 12:54:54;;;;;;;;;;;;;;;;;;5013594;28;20000;-79
2023/01/10 12:57:20;;;;;;;;;;;;;;;;;;4995975;28;20366;-80
2023/01/10 12:59:46;;;;;;;;;;;;;;;;;;5014753;28;20337;-80
2023/01/10 13:02:12;;;;;;;;;;;;;;;;;;5000350;28;19953;-79
2023/01/10 13:04:37;;;;;;;;;;;;;;;;;;5000233;28;19996;-80
2023/01/10 13:07:03;;;;;;;;;;;;;;;;;;5000326;28;19909;-79
2023/01/10 13:09:29;;;;;;;;;;;;;;;;;;5017610;28;20004;-80
2023/01/10 13:11:55;;;;;;;;;;;;;;;;;;5016145;28;20519;-79
2023/01/10 13:14:21;;;;;;;;;;;;;;;;;;4999790;28;19935;-79
2023/01/10 13:16:47;;;;;;;;;;;;;;;;;;4999464;23;19933;-76
2023/01/10 13:19:13;;;;;;;;;;;;;;;;;;4996798;28;20409;-76
2023/01/10 13:21:39;;;;;;;;;;;;;;;;;;4997114;28;19917;-76
2023/01/10 13:24:05;;;;;;;;;;;;;;;;;;4979282;28;19913;-75
2023/01/10 13:26:31;;;;;;;;;;;;;;;;;;4996774;28;20337;-76
2023/01/10 13:28:57;;;;;;;;;;;;;;;;;;4996564;28;19910;-77
2023/01/10 13:31:23;;;;;;;;;;;;;;;;;;4979242;28;20382;-76
2023/01/10 13:33:49;;;;;;;;;;;;;;;;;;4979192;28;20375;-76
2023/01/10 13:36:15;;;;;;;;;;;;;;;;;;4996516;28;19910;-77
2023/01/10 13:38:41;;;;;;;;;;;;;;;;;;4996256;28;19917;-78
2023/01/10 13:41:07;;;;;;;;;;;;;;;;;;4996505;28;20008;-77
2023/01/10 13:43:33;;;;;;;;;;;;;;;;;;4996602;28;19910;-77
2023/01/10 13:45:59;;;;;;;;;;;;;;;;;;4978620;28;20401;-78
2023/01/10 13:48:25;;;;;;;;;;;;;;;;;;4996472;28;19910;-77
2023/01/10 13:50:51;;;;;;;;;;;;;;;;;;4996241;28;19910;-77
2023/01/10 13:53:16;;;;;;;;;;;;;;;;;;4996345;28;19921;-75
2023/01/10 13:55:45;;;;;;;;;;;;;;;;;;4996061;28;20037;-76
2023/01/10 13:58:11;;;;;;;;;;;;;;;;;;4995812;28;20047;-76
2023/01/10 14:03:21;;;;;;;;;;;;;;;;;;4996159;28;19920;-75
2023/01/10 14:05:47;;;;;;;;;;;;;;;;;;4995814;28;19910;-76
2023/01/10 14:08:13;;;;;;;;;;;;;;;;;;4996169;28;20610;-77
2023/01/10 14:10:39;;;;;;;;;;;;;;;;;;4995439;28;19914;-77
2023/01/10 14:13:09;;;;;;;;;;;;;;;;;;4995210;28;20202;-77
2023/01/10 14:15:35;;;;;;;;;;;;;;;;;;4977641;28;19980;-76
2023/01/10 14:18:01;;;;;;;;;;;;;;;;;;4995760;28;19906;-76
2023/01/10 14:20:27;;;;;;;;;;;;;;;;;;4995764;28;19959;-75
2023/01/10 14:22:53;;;;;;;;;;;;;;;;;;4995389;28;20382;-76
2023/01/10 14:25:19;;;;;;;;;;;;;;;;;;4995666;28;19910;-76
2023/01/10 14:27:45;;;;;;;;;;;;;;;;;;4978167;28;20056;-76
2023/01/10 14:30:11;;;;;;;;;;;;;;;;;;4995705;28;20349;-77
2023/01/10 14:32:40;;;;;;;;;;;;;;;;;;4995782;28;19910;-76
2023/01/10 14:35:06;;;;;;;;;;;;;;;;;;4995415;28;19964;-77
2023/01/10 14:37:36;;;;;;;;;;;;;;;;;;4978734;28;19960;-76
2023/01/10 14:40:02;;;;;;;;;;;;;;;;;;4997094;28;19910;-77
2023/01/10 14:42:28;;;;;;;;;;;;;;;;;;4978842;28;19921;-76
2023/01/10 14:44:53;;;;;;;;;;;;;;;;;;4995958;28;19910;-76
2023/01/10 14:47:19;;;;;;;;;;;;;;;;;;4978408;28;19937;-77
2023/01/10 14:49:45;;;;;;;;;;;;;;;;;;4995105;28;19909;-76
2023/01/10 14:52:11;;;;;;;;;;;;;;;;;;4994755;28;19917;-77
2023/01/10 14:54:37;;;;;;;;;;;;;;;;;;4994711;28;20359;-77
2023/01/10 14:57:03;;;;;;;;;;;;;;;;;;4994824;28;19956;-77
2023/01/10 14:59:29;;;;;;;;;;;;;;;;;;4994764;28;20325;-76
2023/01/10 15:01:55;;;;;;;;;;;;;;;;;;4977822;28;19969;-77
2023/01/10 15:04:21;;;;;;;;;;;;;;;;;;4977759;28;19929;-77
2023/01/10 15:06:47;;;;;;;;;;;;;;;;;;4977754;28;19933;-77
2023/01/10 15:09:13;;;;;;;;;;;;;;;;;;4995259;28;19972;-77
2023/01/10 15:11:39;;;;;;;;;;;;;;;;;;4994918;28;19906;-77
2023/01/10 15:14:06;;;;;;;;;;;;;;;;;;4977791;28;20282;-77
2023/01/10 15:16:32;;;;;;;;;;;;;;;;;;4994337;28;19914;-77
2023/01/10 15:18:58;;;;;;;;;;;;;;;;;;4976218;28;20403;-77
2023/01/10 15:21:24;;;;;;;;;;;;;;;;;;4976769;28;20286;-77
2023/01/10 15:23:50;;;;;;;;;;;;;;;;;;4976436;28;20000;-77
2023/01/10 15:26:16;;;;;;;;;;;;;;;;;;4994285;28;20371;-77
2023/01/10 15:28:42;;;;;;;;;;;;;;;;;;4976613;28;19949;-77
2023/01/10 15:31:10;;;;;;;;;;;;;;;;;;4994495;28;19910;-77
2023/01/10 15:33:36;;;;;;;;;;;;;;;;;;4987525;28;19965;-78
2023/01/10 15:36:02;;;;;;;;;;;;;;;;;;4977871;28;19957;-80
2023/01/10 15:38:29;;;;;;;;;;;;;;;;;;4958993;28;19911;-77
2023/01/10 15:40:56;;;;;;;;;;;;;;;;;;4975756;28;19910;-79
2023/01/10 15:43:22;;;;;;;;;;;;;;;;;;4974906;28;20370;-76
2023/01/10 15:45:48;;;;;;;;;;;;;;;;;;4975520;28;19914;-77
2023/01/10 15:48:14;;;;;;;;;;;;;;;;;;4957251;28;20284;-77
2023/01/10 15:50:40;;;;;;;;;;;;;;;;;;4975013;28;20400;-77
2023/01/10 15:53:06;;;;;;;;;;;;;;;;;;4975063;28;19936;-75
2023/01/10 15:55:32;;;;;;;;;;;;;;;;;;4975070;28;19910;-77
2023/01/10 15:58:00;;;;;;;;;;;;;;;;;;4974116;28;20004;-77
2023/01/10 16:00:26;;;;;;;;;;;;;;;;;;4974468;28;19914;-76
2023/01/10 16:02:52;;;;;;;;;;;;;;;;;;4975585;28;20009;-77
2023/01/10 16:05:20;;;;;;;;;;;;;;;;;;4976069;28;19910;-77
2023/01/10 16:07:45;;;;;;;;;;;;;;;;;;4959148;28;19937;-78
2023/01/10 16:10:11;;;;;;;;;;;;;;;;;;4976240;28;19910;-78
2023/01/10 16:15:22;;;;;;;;;;;;;;;;;;4974368;28;19925;-77
2023/01/10 16:17:48;;;;;;;;;;;;;;;;;;4975541;28;19910;-77
2023/01/10 16:20:14;;;;;;;;;;;;;;;;;;4978835;28;20001;-77
2023/01/10 16:22:40;;;;;;;;;;;;;;;;;;4958507;28;19918;-77
2023/01/10 16:25:06;;;;;;;;;;;;;;;;;;4976409;28;19917;-79
2023/01/10 16:27:31;;;;;;;;;;;;;;;;;;4975640;28;19966;-78
2023/01/10 16:29:57;;;;;;;;;;;;;;;;;;4958197;28;20391;-77
2023/01/10 16:32:23;;;;;;;;;;;;;;;;;;4958354;28;19965;-78
2023/01/10 16:34:49;;;;;;;;;;;;;;;;;;4957558;28;20283;-77
2023/01/10 16:37:15;;;;;;;;;;;;;;;;;;4973820;28;19937;-78
2023/01/10 16:39:41;;;;;;;;;;;;;;;;;;4975087;28;19906;-78
2023/01/10 16:44:52;;;;;;;;;;;;;;;;;;4974756;28;19934;-77
2023/01/10 16:47:18;;;;;;;;;;;;;;;;;;4974843;28;19914;-77
2023/01/10 16:49:45;;;;;;;;;;;;;;;;;;4974779;28;19916;-77
2023/01/10 16:52:11;;;;;;;;;;;;;;;;;;5013022;28;19909;-78
2023/01/10 16:54:37;;;;;;;;;;;;;;;;;;5012898;28;20469;-78